Time;durP1;ratioP1;P1;durP2;ratioP2;P2;SDS_P1;SDS_P2;PMS_P1;PMS_P2;Temp;Humidity;BMP_temperature;BMP_pressure;BME280_temperature;BME280_humidity;BME280_pressure;Samples;Min_cycle;Max_cycle;Signal;HPM_P1;HPM_P2
2021/06/06 05:01:57;;;;;;;4.38;2.53;;;;;;;21.29;51.48;94906.22;5218806;23;20088;-65
2021/06/06 05:04:23;;;;;;;2.28;2.15;;;;;;;21.68;51.80;94900.00;4845019;29;20120;-65
2021/06/06 05:06:48;;;;;;;2.67;2.47;;;;;;;22.42;50.80;94905.81;4842489;29;20038;-66
2021/06/06 05:09:14;;;;;;;3.47;3.17;;;;;;;21.42;53.59;94905.91;4855511;29;20034;-66
2021/06/06 05:11:39;;;;;;;2.53;2.10;;;;;;;22.20;52.61;94915.56;4856950;29;20037;-66
2021/06/06 05:14:05;;;;;;;2.45;2.20;;;;;;;22.41;51.41;94912.16;4828014;29;20476;-66
2021/06/06 05:16:31;;;;;;;2.67;2.08;;;;;;;22.13;53.29;94914.94;4854134;29;20021;-66
2021/06/06 05:18:58;;;;;;;2.67;2.47;;;;;;;22.73;52.99;94915.75;4859237;29;20121;-66
2021/06/06 05:21:24;;;;;;;2.60;2.40;;;;;;;23.16;51.78;94916.72;4857425;29;20025;-64
2021/06/06 05:23:49;;;;;;;2.80;2.60;;;;;;;23.40;51.80;94912.78;4857972;29;20037;-65
2021/06/06 05:26:15;;;;;;;5.47;2.58;;;;;;;23.12;50.18;94903.22;4857089;29;20029;-65
2021/06/06 05:28:40;;;;;;;4.32;2.63;;;;;;;22.99;49.35;94899.13;4856961;29;20040;-63
2021/06/06 05:31:06;;;;;;;3.08;2.45;;;;;;;23.61;49.77;94899.47;4840436;29;20108;-64
2021/06/06 05:33:31;;;;;;;4.93;2.80;;;;;;;23.63;47.79;94898.44;4855838;29;20084;-64
2021/06/06 05:35:57;;;;;;;4.57;2.88;;;;;;;24.22;47.31;94896.44;4856387;29;20055;-64
2021/06/06 05:38:24;;;;;;;2.83;2.42;;;;;;;23.66;46.48;94890.78;4838661;29;20052;-64
2021/06/06 05:40:49;;;;;;;2.35;2.20;;;;;;;24.17;48.65;94899.88;4852074;29;20037;-65
2021/06/06 05:43:17;;;;;;;3.60;2.60;;;;;;;24.38;46.81;94898.94;4838365;29;20029;-64
2021/06/06 05:45:43;;;;;;;8.23;2.83;;;;;;;24.65;47.81;94899.59;4857247;29;20029;-64
2021/06/06 05:48:08;;;;;;;4.25;2.00;;;;;;;25.09;46.08;94900.00;4842412;29;20030;-65
2021/06/06 05:50:36;;;;;;;5.70;2.00;;;;;;;25.15;46.12;94898.16;4856676;29;20027;-65
2021/06/06 05:53:02;;;;;;;4.88;2.60;;;;;;;25.12;44.65;94901.31;4841242;29;20033;-63
2021/06/06 05:55:28;;;;;;;4.07;2.30;;;;;;;24.42;46.73;94900.00;4823763;29;20173;-64
2021/06/06 05:57:53;;;;;;;2.47;2.28;;;;;;;25.30;45.27;94906.13;4858410;29;20444;-66
2021/06/06 06:00:28;;;;;;;2.78;2.45;;;;;;;24.60;44.47;94904.84;4855256;29;20041;-65
2021/06/06 06:02:53;;;;;;;4.35;2.03;;;;;;;25.62;44.58;94904.06;4844943;29;20052;-66
2021/06/06 06:05:19;;;;;;;5.30;2.10;;;;;;;26.34;44.04;94908.25;4856584;29;20546;-63
2021/06/06 06:07:44;;;;;;;4.50;2.00;;;;;;;26.44;43.45;94910.91;4841080;29;20030;-64
2021/06/06 06:10:11;;;;;;;3.35;3.05;;;;;;;24.81;43.68;94902.28;4857825;29;20423;-63
2021/06/06 06:12:37;;;;;;;3.03;1.85;;;;;;;25.06;45.34;94900.53;4839766;29;20058;-64
2021/06/06 06:15:05;;;;;;;2.17;2.00;;;;;;;24.85;45.21;94908.69;4856908;29;20064;-63
2021/06/06 06:17:30;;;;;;;4.40;2.08;;;;;;;25.52;43.32;94912.03;4839496;29;20041;-62
2021/06/06 06:19:56;;;;;;;2.20;2.00;;;;;;;25.78;43.25;94912.03;4841488;29;20049;-63
2021/06/06 06:22:21;;;;;;;1.92;1.80;;;;;;;25.84;42.93;94908.31;4856257;29;20522;-63
2021/06/06 06:24:47;;;;;;;2.17;1.98;;;;;;;25.02;43.92;94914.56;4854624;29;20089;-64
2021/06/06 06:27:12;;;;;;;3.63;2.20;;;;;;;25.18;44.69;94914.34;4863207;29;20036;-62
2021/06/06 06:29:38;;;;;;;2.53;2.33;;;;;;;26.08;44.68;94919.97;4864544;29;20025;-64
2021/06/06 06:32:04;;;;;;;3.63;2.63;;;;;;;25.30;43.37;94911.44;4864790;29;20030;-62
2021/06/06 06:34:30;;;;;;;2.83;2.35;;;;;;;23.88;47.03;94925.06;4847877;29;20422;-64
2021/06/06 06:36:56;;;;;;;2.75;2.35;;;;;;;24.09;47.21;94926.78;4865389;29;20112;-61
2021/06/06 06:39:21;;;;;;;2.42;2.22;;;;;;;23.03;49.06;94915.28;4864397;29;20041;-64
2021/06/06 06:41:46;;;;;;;2.92;2.13;;;;;;;23.91;46.99;94920.06;4867901;29;20021;-63
2021/06/06 06:44:12;;;;;;;4.07;2.30;;;;;;;24.50;44.25;94904.81;4856107;29;20698;-61
2021/06/06 06:46:37;;;;;;;5.97;2.35;;;;;;;23.86;48.35;94911.28;4827415;29;20041;-67
2021/06/06 06:49:03;;;;;;;3.40;2.42;;;;;;;24.89;46.36;94909.75;4860660;29;20033;-62
2021/06/06 06:51:28;;;;;;;6.18;2.38;;;;;;;25.71;44.51;94917.63;4855916;29;20034;-63
2021/06/06 06:53:54;;;;;;;2.67;2.47;;;;;;;25.64;43.38;94912.56;4856786;29;20057;-62
2021/06/06 06:56:24;;;;;;;2.78;2.47;;;;;;;25.75;43.04;94920.53;4823767;29;20033;-61
2021/06/06 06:58:49;;;;;;;2.22;1.90;;;;;;;26.70;43.40;94916.91;4824822;29;20026;-62
2021/06/06 07:01:15;;;;;;;4.57;2.90;;;;;;;25.72;41.56;94913.88;4839769;29;20048;-62
2021/06/06 07:03:40;;;;;;;2.53;2.30;;;;;;;27.91;39.56;94918.88;4840089;29;20093;-62
2021/06/06 07:06:06;;;;;;;6.13;4.20;;;;;;;29.26;34.24;94905.16;4856512;29;20162;-62
2021/06/06 07:08:35;;;;;;;6.65;3.72;;;;;;;38.89;23.47;94919.66;4855235;29;20029;-64
2021/06/06 07:11:00;;;;;;;5.20;4.15;;;;;;;44.76;19.49;94924.59;4852333;29;20029;-64
2021/06/06 07:13:26;;;;;;;9.80;4.60;;;;;;;45.04;18.88;94927.38;4850422;29;20121;-65
2021/06/06 07:15:54;;;;;;;5.85;4.07;;;;;;;47.50;17.83;94914.78;4825124;29;20034;-62
2021/06/06 07:18:21;;;;;;;7.07;3.90;;;;;;;49.01;15.85;94911.28;4836594;29;20121;-63
2021/06/06 07:20:51;;;;;;;6.70;3.53;;;;;;;45.00;17.58;94904.69;4822902;29;20049;-62
2021/06/06 07:23:17;;;;;;;5.53;3.70;;;;;;;45.32;17.89;94888.22;4834230;29;20048;-64
2021/06/06 07:25:43;;;;;;;6.15;3.85;;;;;;;34.08;26.73;94888.28;4853044;29;20030;-64
2021/06/06 07:28:09;;;;;;;6.35;4.13;;;;;;;40.39;21.89;94886.41;4837699;29;20036;-63
2021/06/06 07:30:48;;;;;;;4.38;3.78;;;;;;;34.96;26.03;94881.16;4835401;29;20105;-62
2021/06/06 07:33:15;;;;;;;6.55;4.70;;;;;;;28.52;35.23;94879.13;4822783;29;20025;-64
2021/06/06 07:35:40;;;;;;;7.63;3.85;;;;;;;26.12;41.50;94873.22;4836562;29;20043;-64
2021/06/06 07:38:06;;;;;;;4.03;3.50;;;;;;;26.82;42.84;94882.84;4846597;29;20495;-63
2021/06/06 07:40:34;;;;;;;7.00;3.67;;;;;;;26.30;41.68;94870.00;4824043;29;20029;-62
2021/06/06 07:43:00;;;;;;;4.07;3.60;;;;;;;26.25;42.72;94870.03;4838121;29;20065;-62
2021/06/06 07:45:28;;;;;;;7.68;4.28;;;;;;;27.09;41.34;94869.16;4854991;29;20065;-62
2021/06/06 07:47:53;;;;;;;7.07;4.30;;;;;;;26.90;39.50;94876.97;4834834;29;20040;-61
2021/06/06 07:50:22;;;;;;;4.95;3.83;;;;;;;26.47;42.24;94875.81;4838270;29;20026;-60
2021/06/06 07:52:47;;;;;;;5.63;3.88;;;;;;;27.02;41.16;94869.47;4849367;29;20029;-62
2021/06/06 07:55:14;;;;;;;10.93;4.05;;;;;;;26.98;42.11;94876.38;4856275;29;20480;-63
2021/06/06 07:57:39;;;;;;;6.30;4.05;;;;;;;27.04;41.72;94880.59;4837655;29;20041;-62
2021/06/06 08:00:08;;;;;;;6.63;4.50;;;;;;;26.55;42.54;94877.88;4839602;29;20076;-63
2021/06/06 08:02:33;;;;;;;6.05;3.50;;;;;;;26.82;41.91;94876.75;4837786;29;20057;-62
2021/06/06 08:04:58;;;;;;;7.05;3.90;;;;;;;27.53;41.93;94877.91;4820212;29;20579;-62
2021/06/06 08:07:28;;;;;;;5.85;4.28;;;;;;;26.86;41.98;94880.44;4847111;29;20045;-63
2021/06/06 08:09:53;;;;;;;8.55;4.93;;;;;;;27.12;42.52;94874.72;4843233;29;20040;-61
2021/06/06 08:12:19;;;;;;;5.30;4.03;;;;;;;25.59;43.92;94870.09;4845993;29;20481;-60
2021/06/06 08:14:44;;;;;;;4.70;3.85;;;;;;;26.61;45.33;94878.69;4849153;29;20033;-61
2021/06/06 08:17:10;;;;;;;5.80;3.80;;;;;;;27.37;42.93;94870.28;4851457;29;20089;-63
2021/06/06 08:19:35;;;;;;;5.80;4.20;;;;;;;27.17;43.60;94868.56;4850002;29;20029;-61
2021/06/06 08:22:01;;;;;;;3.88;3.50;;;;;;;26.72;41.54;94870.38;4833539;29;20037;-62
2021/06/06 08:24:27;;;;;;;10.70;3.53;;;;;;;26.54;43.38;94867.53;4852180;29;20045;-65
2021/06/06 08:26:52;;;;;;;6.47;3.42;;;;;;;27.09;44.20;94864.63;4834838;29;20056;-63
2021/06/06 08:29:18;;;;;;;8.35;3.92;;;;;;;26.39;42.71;94864.94;4828048;29;20038;-62
2021/06/06 08:31:44;;;;;;;4.75;3.38;;;;;;;26.13;44.95;94861.53;4825469;29;20517;-62
2021/06/06 08:34:09;;;;;;;5.38;3.40;;;;;;;27.08;45.44;94863.03;4838816;29;20037;-61
2021/06/06 08:36:42;;;;;;;3.50;3.20;;;;;;;26.61;44.46;94865.41;4839704;29;20081;-62
2021/06/06 08:39:12;;;;;;;3.53;3.22;;;;;;;26.95;44.63;94854.88;4837675;29;20121;-62
2021/06/06 08:41:47;;;;;;;8.00;3.60;;;;;;;26.05;44.04;94849.59;4824846;29;20120;-61
2021/06/06 08:44:43;;;;;;;5.53;3.33;;;;;;;26.52;43.13;94859.81;4835394;29;20050;-62
2021/06/06 08:47:14;;;;;;;3.70;3.40;;;;;;;26.96;44.38;94848.50;4836211;29;20046;-63
2021/06/06 08:49:49;;;;;;;5.00;3.08;;;;;;;27.59;42.41;94850.19;4829153;29;20467;-62
2021/06/06 08:52:18;;;;;;;4.32;3.92;;;;;;;26.96;43.60;94843.97;4840790;29;20033;-64
2021/06/06 08:55:04;;;;;;;3.73;3.27;;;;;;;26.59;45.13;94849.72;4858094;29;20038;-60
2021/06/06 08:58:10;;;;;;;3.70;3.40;;;;;;;27.66;44.13;94839.22;4856539;29;20286;-61
2021/06/06 09:00:37;;;;;;;4.20;3.45;;;;;;;27.62;43.88;94838.97;4805725;29;20067;-63
2021/06/06 09:03:08;;;;;;;5.63;3.65;;;;;;;27.86;44.71;94841.69;4825205;29;20515;-62
2021/06/06 09:05:36;;;;;;;3.88;3.47;;;;;;;27.29;44.36;94837.09;4826107;29;20037;-61
2021/06/06 09:08:04;;;;;;;5.80;3.40;;;;;;;26.52;44.25;94837.81;4821903;29;20117;-64
2021/06/06 09:10:34;;;;;;;4.25;3.63;;;;;;;27.06;45.15;94837.78;4856527;29;20057;-62
2021/06/06 09:13:03;;;;;;;3.58;3.17;;;;;;;27.84;43.05;94840.41;4840301;29;20061;-61
2021/06/06 09:15:29;;;;;;;3.75;3.25;;;;;;;28.21;43.44;94827.25;4851759;29;20029;-63
2021/06/06 09:17:59;;;;;;;3.22;2.85;;;;;;;28.02;41.71;94823.69;4855282;29;20136;-61
2021/06/06 09:20:35;;;;;;;4.25;2.88;;;;;;;28.56;44.50;94829.47;4816924;29;20029;-61
2021/06/06 09:23:04;;;;;;;6.75;3.55;;;;;;;28.66;42.18;94831.25;4845985;29;20499;-60
2021/06/06 09:25:34;;;;;;;6.10;3.03;;;;;;;28.21;42.73;94821.91;4843597;29;20034;-62
2021/06/06 09:28:03;;;;;;;6.57;3.40;;;;;;;28.25;42.47;94823.72;4837152;29;20427;-60
2021/06/06 09:30:29;;;;;;;4.05;3.10;;;;;;;27.93;43.55;94820.06;4852357;29;20033;-61
2021/06/06 09:33:18;;;;;;;9.63;3.35;;;;;;;28.12;41.79;94828.94;4840333;29;20061;-62
2021/06/06 09:36:01;;;;;;;6.45;2.70;;;;;;;28.49;40.69;94823.69;4837802;29;20038;-60
2021/06/06 09:38:34;;;;;;;3.33;3.00;;;;;;;28.33;40.95;94814.31;4839946;29;20048;-61
2021/06/06 09:41:19;;;;;;;5.93;3.15;;;;;;;28.40;41.68;94811.28;4821824;29;20026;-61
2021/06/06 09:43:57;;;;;;;3.65;2.90;;;;;;;28.19;39.82;94813.41;4838711;29;20476;-63
2021/06/06 09:46:23;;;;;;;3.10;2.90;;;;;;;28.09;42.43;94818.84;4865618;29;20118;-61
2021/06/06 09:48:49;;;;;;;4.85;3.35;;;;;;;28.12;42.04;94812.97;4874518;29;20112;-62
2021/06/06 09:51:29;;;;;;;3.03;2.72;;;;;;;28.94;43.11;94802.84;4859169;29;20650;-61
2021/06/06 09:53:59;;;;;;;4.10;3.35;;;;;;;29.11;42.20;94801.28;4875505;29;20180;-62
2021/06/06 09:56:27;;;;;;;3.78;3.50;;;;;;;29.34;40.90;94804.16;4849206;29;20124;-60
2021/06/06 09:58:53;;;;;;;9.55;3.40;;;;;;;29.13;41.08;94800.97;4839361;29;20030;-61
2021/06/06 10:01:25;;;;;;;3.83;3.53;;;;;;;28.91;39.58;94795.44;4852678;29;20058;-61
2021/06/06 10:03:57;;;;;;;4.63;3.72;;;;;;;28.95;40.46;94799.13;4837796;29;20090;-62
2021/06/06 10:06:37;;;;;;;4.80;3.88;;;;;;;28.80;39.33;94786.00;4851355;29;20563;-66
2021/06/06 10:09:18;;;;;;;4.85;3.80;;;;;;;28.67;40.75;94777.63;4836283;29;20583;-62
2021/06/06 10:11:49;;;;;;;5.72;3.33;;;;;;;29.16;41.52;94779.84;4837125;29;20447;-62
2021/06/06 10:14:19;;;;;;;9.95;4.10;;;;;;;28.44;40.96;94778.47;4838383;29;20046;-61
2021/06/06 10:16:45;;;;;;;4.88;4.20;;;;;;;28.95;41.00;94772.44;4836149;29;20117;-63
2021/06/06 10:19:15;;;;;;;6.30;3.45;;;;;;;28.25;41.47;94769.63;4835750;29;20041;-63
2021/06/06 10:21:40;;;;;;;5.20;3.80;;;;;;;28.18;42.48;94769.97;4836141;29;20044;-64
2021/06/06 10:24:11;;;;;;;3.88;3.45;;;;;;;29.01;40.39;94750.72;4846714;29;20428;-61
2021/06/06 10:26:54;;;;;;;5.60;4.00;;;;;;;29.00;39.99;94759.81;4821439;29;20034;-60
2021/06/06 10:29:28;;;;;;;8.32;4.70;;;;;;;28.81;42.84;94755.56;4835198;29;20238;-61
2021/06/06 10:31:57;;;;;;;5.90;3.85;;;;;;;29.20;39.30;94740.81;4837247;29;20038;-63
2021/06/06 10:34:32;;;;;;;3.80;3.50;;;;;;;29.17;40.93;94749.41;4837105;29;20041;-62
2021/06/06 10:36:57;;;;;;;3.45;3.15;;;;;;;29.27;40.88;94741.25;4818919;29;20056;-62
2021/06/06 10:39:25;;;;;;;4.60;3.35;;;;;;;28.80;39.19;94738.00;4835689;29;20464;-62
2021/06/06 10:42:11;;;;;;;3.72;3.42;;;;;;;28.36;37.96;94738.31;4834205;29;20116;-63
2021/06/06 10:44:49;;;;;;;3.10;2.90;;;;;;;29.14;38.57;94739.31;4835879;29;20037;-63
2021/06/06 10:47:23;;;;;;;3.20;2.90;;;;;;;28.62;40.06;94726.22;4833389;29;20041;-60
2021/06/06 10:49:54;;;;;;;4.93;3.33;;;;;;;29.67;40.34;94730.94;4819081;29;20034;-62
2021/06/06 10:52:35;;;;;;;7.60;2.88;;;;;;;30.25;36.58;94723.94;4819265;29;20062;-62
2021/06/06 10:55:31;;;;;;;3.42;3.13;;;;;;;29.71;37.88;94718.56;4820330;29;20038;-61
2021/06/06 10:57:57;;;;;;;5.03;3.00;;;;;;;29.82;37.80;94719.97;4836992;29;20046;-62
2021/06/06 11:00:33;;;;;;;7.55;3.00;;;;;;;29.86;38.75;94718.34;4835248;29;20123;-64
2021/06/06 11:03:02;;;;;;;3.58;3.28;;;;;;;30.52;36.93;94708.94;4819945;29;20447;-63
2021/06/06 11:05:44;;;;;;;;;;;;;;;30.26;37.07;94706.00;4826350;29;20522;-63
2021/06/06 11:08:28;;;;;;;3.60;3.10;;;;;;;29.95;35.24;94705.84;4850790;29;19924;-63
2021/06/06 11:11:18;;;;;;;4.63;3.15;;;;;;;29.74;36.66;94705.41;4854211;29;20037;-63
2021/06/06 11:14:12;;;;;;;4.03;3.47;;;;;;;30.63;35.96;94699.63;4853539;29;20413;-62
2021/06/06 11:16:43;;;;;;;2.70;2.50;;;;;;;30.15;36.58;94693.97;4853424;29;20028;-62
2021/06/06 11:19:19;;;;;;;6.35;2.50;;;;;;;29.59;36.39;94687.03;4840279;29;20041;-62
2021/06/06 11:21:49;;;;;;;2.55;2.28;;;;;;;30.16;36.90;94701.66;4850991;29;20112;-64
2021/06/06 11:24:39;;;;;;;4.38;2.70;;;;;;;30.54;35.86;94693.38;4843495;29;20543;-61
2021/06/06 11:27:10;;;;;;;2.70;2.50;;;;;;;29.65;36.86;94691.19;4843920;29;20041;-62
2021/06/06 11:29:57;;;;;;;3.08;2.55;;;;;;;30.70;36.32;94700.75;4851140;29;20061;-63
2021/06/06 11:33:02;;;;;;;4.30;2.38;;;;;;;31.23;36.31;94702.75;4848239;29;20042;-63
2021/06/06 11:35:33;;;;;;;2.42;2.22;;;;;;;31.29;35.04;94699.63;4841734;29;20136;-63
2021/06/06 11:38:41;;;;;;;2.85;2.40;;;;;;;31.66;35.88;94682.34;4851798;29;20452;-65
2021/06/06 11:41:09;;;;;;;2.42;2.22;;;;;;;30.91;33.96;94678.88;4851096;29;20041;-64
2021/06/06 11:43:48;;;;;;;6.78;2.47;;;;;;;30.20;37.47;94697.31;4852214;29;20037;-62
2021/06/06 11:46:40;;;;;;;3.13;2.55;;;;;;;29.25;40.18;94707.94;4832078;29;20476;-63
2021/06/06 11:49:27;;;;;;;5.85;2.92;;;;;;;27.74;43.59;94703.59;4850799;29;20089;-62
2021/06/06 11:51:53;;;;;;;3.30;3.10;;;;;;;27.99;43.11;94699.06;4835385;29;20041;-61
2021/06/06 11:54:35;;;;;;;2.05;1.95;;;;;;;26.97;42.97;94709.91;4853085;29;20021;-63
2021/06/06 11:57:11;;;;;;;3.47;2.05;;;;;;;26.89;43.29;94702.53;4853800;29;20076;-65
2021/06/06 11:59:59;;;;;;;2.55;2.35;;;;;;;26.78;45.43;94708.19;4843245;29;20121;-63
2021/06/06 12:02:31;;;;;;;4.00;2.95;;;;;;;26.88;48.22;94689.50;4840123;29;20081;-64
2021/06/06 12:04:57;;;;;;;3.17;2.90;;;;;;;26.98;48.87;94690.22;4819506;29;20037;-65
2021/06/06 12:07:30;;;;;;;2.97;2.70;;;;;;;26.94;46.39;94694.50;4819363;29;20042;-66
2021/06/06 12:09:57;;;;;;;7.32;3.25;;;;;;;25.76;48.92;94696.50;4819217;29;20173;-62
2021/06/06 12:12:28;;;;;;;3.00;2.80;;;;;;;26.18;50.38;94687.06;4819239;29;20049;-64
2021/06/06 12:15:21;;;;;;;3.00;2.80;;;;;;;26.79;50.36;94678.66;4819936;29;20394;-63
2021/06/06 12:17:46;;;;;;;3.33;3.08;;;;;;;27.01;48.64;94672.91;4834356;29;20412;-64
2021/06/06 12:20:18;;;;;;;3.28;2.90;;;;;;;26.26;47.54;94672.41;4819583;29;20038;-62
2021/06/06 12:22:43;;;;;;;3.45;2.80;;;;;;;26.20;49.40;94665.50;4819290;29;20075;-64
2021/06/06 12:25:11;;;;;;;4.45;2.85;;;;;;;26.09;48.29;94666.63;4819199;29;20122;-64
2021/06/06 12:27:42;;;;;;;2.78;2.60;;;;;;;25.85;47.12;94660.41;4836174;29;20420;-62
2021/06/06 12:30:26;;;;;;;3.75;2.63;;;;;;;25.81;48.16;94654.81;4818630;29;20090;-61
2021/06/06 12:33:18;;;;;;;5.55;2.80;;;;;;;26.17;46.73;94653.59;4819328;29;20037;-63
2021/06/06 12:35:52;;;;;;;2.80;2.60;;;;;;;26.24;46.32;94647.97;4833627;29;20467;-64
2021/06/06 12:38:18;;;;;;;2.70;2.50;;;;;;;26.42;46.88;94642.03;4803572;29;20026;-63
2021/06/06 12:40:47;;;;;;;2.72;2.53;;;;;;;26.62;45.12;94641.03;4819477;29;20544;-63
2021/06/06 12:43:13;;;;;;;2.83;2.63;;;;;;;26.47;45.30;94639.31;4818481;29;20173;-64
2021/06/06 12:45:43;;;;;;;3.15;2.65;;;;;;;26.10;45.88;94629.16;4819651;29;20127;-64
2021/06/06 12:48:23;;;;;;;2.97;2.67;;;;;;;26.79;46.88;94627.34;4819178;29;20042;-64
2021/06/06 12:50:49;;;;;;;2.78;2.58;;;;;;;26.94;45.65;94625.38;4834901;29;20070;-64
2021/06/06 12:53:14;;;;;;;2.80;2.60;;;;;;;26.69;44.39;94622.91;4834448;29;20058;-64
2021/06/06 12:55:40;;;;;;;2.88;2.67;;;;;;;26.72;43.74;94615.19;4835257;29;20506;-63
2021/06/06 12:58:15;;;;;;;5.28;2.90;;;;;;;26.64;43.28;94623.78;4819294;29;20038;-64
2021/06/06 13:00:51;;;;;;;3.53;2.92;;;;;;;26.70;43.63;94622.66;4833745;29;20456;-62
2021/06/06 13:03:19;;;;;;;3.20;3.00;;;;;;;26.66;45.19;94621.63;4819016;29;20496;-64
2021/06/06 13:05:46;;;;;;;4.60;2.80;;;;;;;26.97;44.37;94624.81;4835706;29;20500;-64
2021/06/06 13:08:22;;;;;;;5.05;3.03;;;;;;;26.49;43.11;94631.84;4845434;29;20034;-62
2021/06/06 13:11:04;;;;;;;4.22;2.88;;;;;;;26.70;44.99;94622.66;4852775;29;20112;-64
2021/06/06 13:13:34;;;;;;;2.95;2.42;;;;;;;26.64;44.47;94622.97;4836412;29;20061;-62
2021/06/06 13:16:00;;;;;;;4.05;2.60;;;;;;;26.94;45.43;94622.72;4853943;29;20026;-61
2021/06/06 13:18:27;;;;;;;3.97;2.70;;;;;;;26.83;43.82;94615.91;4836829;29;20041;-64
2021/06/06 13:21:06;;;;;;;3.33;3.13;;;;;;;26.80;44.22;94615.66;4835305;29;20032;-64
2021/06/06 13:23:36;;;;;;;4.18;3.20;;;;;;;26.55;45.17;94619.34;4843181;29;20062;-63
2021/06/06 13:26:04;;;;;;;3.38;2.75;;;;;;;26.88;44.56;94615.88;4836812;29;20036;-64
2021/06/06 13:28:54;;;;;;;3.28;3.00;;;;;;;26.99;44.54;94620.03;4837524;29;20471;-64
2021/06/06 13:31:29;;;;;;;4.50;3.40;;;;;;;26.90;45.41;94616.41;4837521;29;20022;-64
2021/06/06 13:33:54;;;;;;;3.10;2.90;;;;;;;27.10;44.02;94621.50;4837415;29;20038;-61
2021/06/06 13:36:20;;;;;;;2.70;2.50;;;;;;;27.20;45.34;94624.06;4838736;29;20507;-64
2021/06/06 13:38:46;;;;;;;3.75;3.00;;;;;;;26.66;44.62;94632.25;4836716;29;20107;-62
2021/06/06 13:41:13;;;;;;;2.88;2.67;;;;;;;26.75;44.93;94629.00;4837429;29;20262;-64
2021/06/06 13:43:39;;;;;;;3.97;2.88;;;;;;;26.92;44.65;94630.19;4837504;29;20058;-63
2021/06/06 13:46:04;;;;;;;3.13;2.83;;;;;;;26.83;45.49;94637.19;4836987;29;20064;-64
2021/06/06 13:48:30;;;;;;;6.95;2.80;;;;;;;26.43;45.43;94640.94;4847753;29;20041;-62
2021/06/06 13:50:57;;;;;;;2.83;2.63;;;;;;;26.48;46.04;94640.91;4854413;29;20093;-64
2021/06/06 13:53:26;;;;;;;3.75;2.88;;;;;;;26.66;44.36;94648.19;4855434;29;20037;-64
2021/06/06 13:55:52;;;;;;;4.30;2.55;;;;;;;26.54;45.05;94641.66;4837019;29;20502;-64
2021/06/06 13:58:18;;;;;;;5.15;3.03;;;;;;;26.65;45.56;94651.91;4823729;29;20033;-64
2021/06/06 14:00:43;;;;;;;4.68;2.80;;;;;;;26.68;45.12;94651.34;4852316;29;20050;-63
2021/06/06 14:03:21;;;;;;;3.20;2.40;;;;;;;26.62;45.93;94647.16;4823214;29;20038;-64
2021/06/06 14:05:46;;;;;;;3.53;3.00;;;;;;;26.72;47.15;94649.75;4824398;29;20054;-64
2021/06/06 14:08:12;;;;;;;2.70;2.50;;;;;;;26.57;45.88;94657.03;4842075;29;20491;-64
2021/06/06 14:10:41;;;;;;;4.28;2.60;;;;;;;26.58;46.47;94650.66;4838872;29;20065;-64
2021/06/06 14:13:08;;;;;;;3.25;2.95;;;;;;;26.67;46.20;94649.78;4855509;29;20036;-65
2021/06/06 14:15:33;;;;;;;3.42;2.70;;;;;;;26.46;45.10;94647.53;4825127;29;20041;-64
2021/06/06 14:17:59;;;;;;;3.50;2.72;;;;;;;26.59;45.47;94644.25;4839064;29;20080;-63
2021/06/06 14:20:24;;;;;;;2.65;2.45;;;;;;;26.60;45.72;94646.66;4840189;29;20041;-63
2021/06/06 14:22:52;;;;;;;2.92;2.63;;;;;;;26.45;45.49;94652.09;4839167;29;20041;-62
2021/06/06 14:25:24;;;;;;;2.88;2.67;;;;;;;26.62;46.38;94647.16;4839946;29;20029;-65
2021/06/06 14:27:50;;;;;;;2.85;2.65;;;;;;;26.03;46.78;94654.44;4838326;29;20549;-63
2021/06/06 14:30:16;;;;;;;4.95;2.70;;;;;;;26.19;47.03;94648.81;4838718;29;20041;-65
2021/06/06 14:32:42;;;;;;;4.80;2.63;;;;;;;25.97;47.50;94650.25;4855825;29;20121;-63
2021/06/06 14:35:08;;;;;;;2.42;2.22;;;;;;;26.10;47.35;94645.09;4823477;29;20542;-64
2021/06/06 14:37:33;;;;;;;4.18;2.50;;;;;;;26.04;47.36;94643.53;4856413;29;20037;-64
2021/06/06 14:39:59;;;;;;;2.67;2.47;;;;;;;26.02;47.49;94644.88;4838818;29;20033;-65
2021/06/06 14:42:25;;;;;;;3.03;2.83;;;;;;;25.60;48.75;94640.84;4839067;29;20495;-63
2021/06/06 14:44:51;;;;;;;2.40;2.20;;;;;;;25.15;50.12;94641.75;4839426;29;20033;-62
2021/06/06 14:47:16;;;;;;;2.97;2.65;;;;;;;24.82;50.33;94633.59;4838742;29;20025;-62
2021/06/06 14:49:42;;;;;;;7.15;2.97;;;;;;;24.75;50.45;94636.50;4856361;29;20037;-62
2021/06/06 14:52:07;;;;;;;2.55;2.35;;;;;;;24.73;50.80;94637.78;4855161;29;20399;-63
2021/06/06 14:54:33;;;;;;;3.05;2.83;;;;;;;25.08;49.74;94633.28;4855885;29;20025;-61
2021/06/06 14:56:58;;;;;;;2.67;2.47;;;;;;;25.35;48.90;94632.94;4854890;29;20036;-62
2021/06/06 14:59:24;;;;;;;2.72;2.53;;;;;;;25.58;49.27;94627.06;4855411;29;20085;-63
2021/06/06 15:01:49;;;;;;;2.80;2.60;;;;;;;25.72;49.65;94626.47;4850566;29;20046;-61
2021/06/06 15:04:15;;;;;;;2.95;2.75;;;;;;;25.33;48.79;94631.63;4854194;29;20045;-63
2021/06/06 15:06:40;;;;;;;2.55;2.40;;;;;;;25.38;49.54;94628.94;4855539;29;20038;-62
2021/06/06 15:09:08;;;;;;;3.10;2.35;;;;;;;25.36;50.02;94626.59;4855157;29;20029;-63
2021/06/06 15:11:33;;;;;;;2.97;2.55;;;;;;;25.35;50.34;94627.66;4823506;29;20120;-62
2021/06/06 15:13:59;;;;;;;2.58;2.40;;;;;;;25.23;50.35;94629.00;4838382;29;20445;-63
2021/06/06 15:16:25;;;;;;;3.50;2.53;;;;;;;25.19;50.78;94628.75;4838814;29;20044;-63
2021/06/06 15:18:50;;;;;;;2.92;2.72;;;;;;;24.62;51.93;94635.19;4838509;29;20495;-63
2021/06/06 15:21:38;;;;;;;2.13;2.03;;;;;;;24.33;52.50;94635.94;4855497;29;20034;-61
2021/06/06 15:24:04;;;;;;;3.33;1.90;;;;;;;24.10;52.83;94638.00;4848814;29;20078;-62
2021/06/06 15:26:31;;;;;;;2.33;1.90;;;;;;;24.04;52.87;94638.25;4838981;29;20608;-63
2021/06/06 15:28:57;;;;;;;2.15;1.95;;;;;;;23.93;52.33;94644.56;4844198;29;20037;-63
2021/06/06 15:31:24;;;;;;;2.40;2.20;;;;;;;23.65;53.51;94656.41;4822707;29;20392;-63
2021/06/06 15:33:50;;;;;;;1.83;1.73;;;;;;;23.38;52.18;94651.22;4853910;29;20408;-64
2021/06/06 15:36:17;;;;;;;2.53;2.33;;;;;;;23.40;52.08;94658.94;4852787;29;20032;-61
2021/06/06 15:38:46;;;;;;;2.30;2.10;;;;;;;23.46;51.77;94669.28;4838459;29;20033;-62
2021/06/06 15:41:12;;;;;;;3.67;1.73;;;;;;;23.52;51.72;94678.03;4838788;29;20026;-62
2021/06/06 15:43:38;;;;;;;1.73;1.63;;;;;;;23.41;50.88;94673.72;4852009;29;20468;-63
2021/06/06 15:46:07;;;;;;;2.88;2.53;;;;;;;23.22;50.73;94673.34;4835282;29;20891;-63
2021/06/06 15:48:33;;;;;;;2.80;2.10;;;;;;;23.04;50.22;94684.34;4849581;29;20439;-63
2021/06/06 15:50:58;;;;;;;2.13;1.92;;;;;;;22.98;50.55;94683.53;4834797;29;20071;-62
2021/06/06 15:53:24;;;;;;;2.72;2.30;;;;;;;22.93;50.69;94691.38;4819099;29;20426;-61
2021/06/06 15:55:51;;;;;;;2.47;2.17;;;;;;;22.93;50.30;94693.22;4836286;29;20453;-62
2021/06/06 15:58:17;;;;;;;3.13;2.20;;;;;;;22.88;50.78;94687.94;4819181;29;20078;-62
2021/06/06 16:00:44;;;;;;;4.57;1.80;;;;;;;22.79;50.53;94702.66;4834465;29;20038;-63
2021/06/06 16:03:10;;;;;;;2.13;1.92;;;;;;;22.71;51.48;94713.66;4819660;29;20055;-63
2021/06/06 16:05:36;;;;;;;2.58;2.20;;;;;;;22.62;51.58;94723.06;4835285;29;20029;-62
2021/06/06 16:08:04;;;;;;;3.22;2.28;;;;;;;22.50;52.37;94726.69;4825360;29;20068;-61
2021/06/06 16:10:30;;;;;;;2.65;2.22;;;;;;;22.42;53.52;94731.59;4853467;29;20033;-64
2021/06/06 16:12:56;;;;;;;3.42;2.85;;;;;;;21.96;55.22;94722.41;4823191;29;20173;-63
2021/06/06 16:15:22;;;;;;;4.40;2.80;;;;;;;21.91;55.71;94719.69;4837452;29;20041;-62
2021/06/06 16:17:47;;;;;;;2.97;2.78;;;;;;;21.88;55.57;94728.06;4844718;29;20034;-62
2021/06/06 16:20:16;;;;;;;11.70;2.90;;;;;;;21.83;55.20;94730.66;5173623;23;20188;-63
2021/06/06 16:22:42;;;;;;;3.33;2.53;;;;;;;21.92;54.97;94739.78;4889235;29;20510;-65
2021/06/06 16:25:08;;;;;;;4.90;2.72;;;;;;;21.95;54.76;94747.19;4893796;29;20048;-66
2021/06/06 16:27:34;;;;;;;2.63;2.42;;;;;;;21.98;54.47;94759.88;4892424;29;20486;-62
2021/06/06 16:30:00;;;;;;;5.03;2.85;;;;;;;21.97;54.79;94766.19;4893654;29;20044;-65
2021/06/06 16:32:25;;;;;;;3.70;3.28;;;;;;;21.39;57.28;94766.72;4893244;29;20036;-62
2021/06/06 16:34:51;;;;;;;18.25;4.30;;;;;;;20.89;60.08;94758.81;4893700;29;20420;-61
2021/06/06 16:37:16;;;;;;;4.25;3.85;;;;;;;20.85;61.09;94747.16;4893259;29;20119;-64
2021/06/06 16:39:42;;;;;;;7.57;4.03;;;;;;;20.84;61.16;94756.09;4893141;29;20039;-63
2021/06/06 16:42:09;;;;;;;3.95;3.65;;;;;;;20.94;60.55;94746.53;4893891;29;20029;-65
2021/06/06 16:44:35;;;;;;;4.47;3.50;;;;;;;20.90;60.49;94760.44;4893271;29;20028;-62
2021/06/06 16:47:00;;;;;;;3.80;3.50;;;;;;;20.68;61.71;94767.44;4893362;29;20084;-59